sensor_id;sensor_type;location;lat;lon;timestamp;P1;durP1;ratioP1;P2;durP2;ratioP2
40314;SDS011;26021;45.640;11.302;2023-02-22T00:01:27;168.10;;;91.43;;
40314;SDS011;26021;45.640;11.302;2023-02-22T00:03:59;165.55;;;91.57;;
40314;SDS011;26021;45.640;11.302;2023-02-22T00:06:26;167.02;;;88.40;;
40314;SDS011;26021;45.640;11.302;2023-02-22T00:08:53;157.38;;;88.22;;
40314;SDS011;26021;45.640;11.302;2023-02-22T00:11:19;155.85;;;88.10;;
40314;SDS011;26021;45.640;11.302;2023-02-22T00:13:45;161.27;;;89.95;;
40314;SDS011;26021;45.640;11.302;2023-02-22T00:16:15;166.30;;;91.70;;
40314;SDS011;26021;45.640;11.302;2023-02-22T00:18:43;171.52;;;89.20;;
40314;SDS011;26021;45.640;11.302;2023-02-22T00:21:10;165.98;;;91.60;;
40314;SDS011;26021;45.640;11.302;2023-02-22T00:23:38;168.95;;;94.50;;
40314;SDS011;26021;45.640;11.302;2023-02-22T00:26:10;171.70;;;93.88;;
40314;SDS011;26021;45.640;11.302;2023-02-22T00:28:37;169.75;;;88.68;;
40314;SDS011;26021;45.640;11.302;2023-02-22T00:31:04;161.90;;;89.43;;
40314;SDS011;26021;45.640;11.302;2023-02-22T00:33:30;164.00;;;88.47;;
40314;SDS011;26021;45.640;11.302;2023-02-22T00:35:56;154.65;;;84.00;;
40314;SDS011;26021;45.640;11.302;2023-02-22T00:38:22;155.48;;;86.75;;
40314;SDS011;26021;45.640;11.302;2023-02-22T00:40:48;166.75;;;91.15;;
40314;SDS011;26021;45.640;11.302;2023-02-22T00:43:13;166.82;;;90.45;;
40314;SDS011;26021;45.640;11.302;2023-02-22T00:45:39;169.35;;;91.07;;
40314;SDS011;26021;45.640;11.302;2023-02-22T00:48:05;162.98;;;92.53;;
40314;SDS011;26021;45.640;11.302;2023-02-22T00:50:31;163.45;;;87.03;;
40314;SDS011;26021;45.640;11.302;2023-02-22T00:52:58;168.70;;;92.53;;
40314;SDS011;26021;45.640;11.302;2023-02-22T00:55:28;179.32;;;98.53;;
40314;SDS011;26021;45.640;11.302;2023-02-22T00:57:56;174.88;;;94.40;;
40314;SDS011;26021;45.640;11.302;2023-02-22T01:00:29;181.43;;;98.85;;
40314;SDS011;26021;45.640;11.302;2023-02-22T01:02:56;175.90;;;94.63;;
40314;SDS011;26021;45.640;11.302;2023-02-22T01:05:24;157.65;;;88.15;;
40314;SDS011;26021;45.640;11.302;2023-02-22T01:07:51;176.63;;;91.85;;
40314;SDS011;26021;45.640;11.302;2023-02-22T01:10:17;158.30;;;88.07;;
40314;SDS011;26021;45.640;11.302;2023-02-22T01:12:45;172.20;;;91.97;;
40314;SDS011;26021;45.640;11.302;2023-02-22T01:15:12;164.52;;;91.47;;
40314;SDS011;26021;45.640;11.302;2023-02-22T01:17:38;162.15;;;89.38;;
40314;SDS011;26021;45.640;11.302;2023-02-22T01:20:06;161.57;;;89.18;;
40314;SDS011;26021;45.640;11.302;2023-02-22T01:22:34;166.10;;;91.70;;
40314;SDS011;26021;45.640;11.302;2023-02-22T01:25:01;171.77;;;90.82;;
40314;SDS011;26021;45.640;11.302;2023-02-22T01:27:28;161.07;;;89.75;;
40314;SDS011;26021;45.640;11.302;2023-02-22T01:29:53;167.98;;;91.63;;
40314;SDS011;26021;45.640;11.302;2023-02-22T01:32:19;168.82;;;89.63;;
40314;SDS011;26021;45.640;11.302;2023-02-22T01:34:44;164.23;;;88.00;;
40314;SDS011;26021;45.640;11.302;2023-02-22T01:37:10;163.85;;;89.75;;
40314;SDS011;26021;45.640;11.302;2023-02-22T01:39:35;155.35;;;84.72;;
40314;SDS011;26021;45.640;11.302;2023-02-22T01:42:01;161.05;;;82.80;;
40314;SDS011;26021;45.640;11.302;2023-02-22T01:44:31;153.65;;;81.57;;
40314;SDS011;26021;45.640;11.302;2023-02-22T01:47:00;152.52;;;81.70;;
40314;SDS011;26021;45.640;11.302;2023-02-22T01:49:35;153.10;;;80.53;;
40314;SDS011;26021;45.640;11.302;2023-02-22T01:52:14;151.20;;;79.18;;
40314;SDS011;26021;45.640;11.302;2023-02-22T01:54:45;152.05;;;82.03;;
40314;SDS011;26021;45.640;11.302;2023-02-22T01:57:17;153.38;;;82.13;;
40314;SDS011;26021;45.640;11.302;2023-02-22T01:59:48;150.35;;;84.13;;
40314;SDS011;26021;45.640;11.302;2023-02-22T02:02:19;149.50;;;80.18;;
40314;SDS011;26021;45.640;11.302;2023-02-22T02:04:49;153.52;;;81.38;;
40314;SDS011;26021;45.640;11.302;2023-02-22T02:07:17;141.85;;;77.78;;
40314;SDS011;26021;45.640;11.302;2023-02-22T02:12:20;153.27;;;80.38;;
40314;SDS011;26021;45.640;11.302;2023-02-22T02:14:47;146.32;;;80.43;;
40314;SDS011;26021;45.640;11.302;2023-02-22T02:17:15;148.98;;;81.47;;
40314;SDS011;26021;45.640;11.302;2023-02-22T02:20:00;158.20;;;82.88;;
40314;SDS011;26021;45.640;11.302;2023-02-22T02:36:42;138.85;;;72.80;;
40314;SDS011;26021;45.640;11.302;2023-02-22T02:39:19;135.75;;;72.57;;
40314;SDS011;26021;45.640;11.302;2023-02-22T02:42:06;145.75;;;76.15;;
40314;SDS011;26021;45.640;11.302;2023-02-22T02:44:40;145.20;;;71.85;;
40314;SDS011;26021;45.640;11.302;2023-02-22T02:47:13;139.23;;;73.78;;
40314;SDS011;26021;45.640;11.302;2023-02-22T02:49:51;146.32;;;72.05;;
40314;SDS011;26021;45.640;11.302;2023-02-22T02:52:22;143.48;;;73.75;;
40314;SDS011;26021;45.640;11.302;2023-02-22T02:54:50;141.40;;;74.53;;
40314;SDS011;26021;45.640;11.302;2023-02-22T02:57:18;142.27;;;71.93;;
40314;SDS011;26021;45.640;11.302;2023-02-22T02:59:44;136.55;;;71.43;;
40314;SDS011;26021;45.640;11.302;2023-02-22T03:19:05;139.65;;;71.13;;
40314;SDS011;26021;45.640;11.302;2023-02-22T03:27:11;130.68;;;66.65;;
40314;SDS011;26021;45.640;11.302;2023-02-22T03:29:45;128.07;;;67.35;;
40314;SDS011;26021;45.640;11.302;2023-02-22T03:32:19;135.23;;;65.85;;
40314;SDS011;26021;45.640;11.302;2023-02-22T03:34:48;129.57;;;65.95;;
40314;SDS011;26021;45.640;11.302;2023-02-22T03:37:22;136.68;;;69.28;;
40314;SDS011;26021;45.640;11.302;2023-02-22T03:39:53;135.60;;;68.45;;
40314;SDS011;26021;45.640;11.302;2023-02-22T03:42:21;133.80;;;68.70;;
40314;SDS011;26021;45.640;11.302;2023-02-22T03:44:51;132.10;;;68.88;;
40314;SDS011;26021;45.640;11.302;2023-02-22T03:47:22;133.63;;;67.38;;
40314;SDS011;26021;45.640;11.302;2023-02-22T03:50:03;135.18;;;69.68;;
40314;SDS011;26021;45.640;11.302;2023-02-22T03:52:33;130.05;;;66.65;;
40314;SDS011;26021;45.640;11.302;2023-02-22T03:55:00;133.52;;;67.20;;
40314;SDS011;26021;45.640;11.302;2023-02-22T03:57:34;139.80;;;68.47;;
40314;SDS011;26021;45.640;11.302;2023-02-22T04:00:03;131.13;;;65.82;;
40314;SDS011;26021;45.640;11.302;2023-02-22T04:02:31;129.43;;;65.03;;
40314;SDS011;26021;45.640;11.302;2023-02-22T04:04:58;131.70;;;66.93;;
40314;SDS011;26021;45.640;11.302;2023-02-22T04:07:24;136.65;;;68.38;;
40314;SDS011;26021;45.640;11.302;2023-02-22T04:09:49;134.10;;;69.18;;
40314;SDS011;26021;45.640;11.302;2023-02-22T04:12:15;132.38;;;68.85;;
40314;SDS011;26021;45.640;11.302;2023-02-22T04:14:40;139.48;;;68.10;;
40314;SDS011;26021;45.640;11.302;2023-02-22T04:17:06;125.18;;;66.97;;
40314;SDS011;26021;45.640;11.302;2023-02-22T04:19:31;128.15;;;68.28;;
40314;SDS011;26021;45.640;11.302;2023-02-22T04:21:57;135.63;;;67.13;;
40314;SDS011;26021;45.640;11.302;2023-02-22T04:24:22;135.57;;;68.40;;
40314;SDS011;26021;45.640;11.302;2023-02-22T04:26:48;123.53;;;64.85;;
40314;SDS011;26021;45.640;11.302;2023-02-22T04:29:14;128.95;;;64.32;;
40314;SDS011;26021;45.640;11.302;2023-02-22T04:31:39;132.35;;;69.07;;
40314;SDS011;26021;45.640;11.302;2023-02-22T04:34:05;130.15;;;63.90;;
40314;SDS011;26021;45.640;11.302;2023-02-22T04:36:30;127.95;;;63.22;;
40314;SDS011;26021;45.640;11.302;2023-02-22T04:38:57;131.15;;;65.60;;
40314;SDS011;26021;45.640;11.302;2023-02-22T04:41:23;131.32;;;63.75;;
40314;SDS011;26021;45.640;11.302;2023-02-22T04:43:49;126.32;;;63.22;;
40314;SDS011;26021;45.640;11.302;2023-02-22T04:46:14;121.07;;;61.58;;
40314;SDS011;26021;45.640;11.302;2023-02-22T04:48:40;124.25;;;60.85;;
40314;SDS011;26021;45.640;11.302;2023-02-22T04:51:05;123.70;;;60.42;;
40314;SDS011;26021;45.640;11.302;2023-02-22T04:53:32;123.00;;;61.25;;
40314;SDS011;26021;45.640;11.302;2023-02-22T04:55:58;120.75;;;58.00;;
40314;SDS011;26021;45.640;11.302;2023-02-22T04:58:24;123.40;;;61.78;;
40314;SDS011;26021;45.640;11.302;2023-02-22T05:00:49;131.05;;;66.35;;
40314;SDS011;26021;45.640;11.302;2023-02-22T05:03:15;133.73;;;65.38;;
40314;SDS011;26021;45.640;11.302;2023-02-22T05:05:40;124.25;;;61.55;;
40314;SDS011;26021;45.640;11.302;2023-02-22T05:08:06;117.97;;;59.78;;
40314;SDS011;26021;45.640;11.302;2023-02-22T05:10:31;124.18;;;62.85;;
40314;SDS011;26021;45.640;11.302;2023-02-22T05:12:57;128.93;;;62.08;;
40314;SDS011;26021;45.640;11.302;2023-02-22T05:15:23;113.38;;;58.75;;
40314;SDS011;26021;45.640;11.302;2023-02-22T05:17:49;119.55;;;59.72;;
40314;SDS011;26021;45.640;11.302;2023-02-22T05:22:58;124.88;;;63.03;;
40314;SDS011;26021;45.640;11.302;2023-02-22T05:25:25;118.38;;;62.20;;
40314;SDS011;26021;45.640;11.302;2023-02-22T05:27:55;117.93;;;60.50;;
40314;SDS011;26021;45.640;11.302;2023-02-22T05:30:24;124.43;;;59.60;;
40314;SDS011;26021;45.640;11.302;2023-02-22T05:32:52;115.93;;;59.72;;
40314;SDS011;26021;45.640;11.302;2023-02-22T05:35:19;107.57;;;58.47;;
40314;SDS011;26021;45.640;11.302;2023-02-22T05:37:45;118.07;;;59.35;;
40314;SDS011;26021;45.640;11.302;2023-02-22T05:40:11;114.82;;;59.72;;
40314;SDS011;26021;45.640;11.302;2023-02-22T05:42:39;122.68;;;59.03;;
40314;SDS011;26021;45.640;11.302;2023-02-22T05:45:05;118.10;;;60.55;;
40314;SDS011;26021;45.640;11.302;2023-02-22T05:47:31;116.70;;;60.35;;
40314;SDS011;26021;45.640;11.302;2023-02-22T05:49:57;122.32;;;64.45;;
40314;SDS011;26021;45.640;11.302;2023-02-22T05:52:23;114.57;;;60.45;;
40314;SDS011;26021;45.640;11.302;2023-02-22T05:54:48;120.07;;;61.55;;
40314;SDS011;26021;45.640;11.302;2023-02-22T05:57:14;115.50;;;59.38;;
40314;SDS011;26021;45.640;11.302;2023-02-22T05:59:40;124.18;;;62.30;;
40314;SDS011;26021;45.640;11.302;2023-02-22T06:02:07;115.82;;;58.50;;
40314;SDS011;26021;45.640;11.302;2023-02-22T06:04:32;118.50;;;62.75;;
40314;SDS011;26021;45.640;11.302;2023-02-22T06:06:58;118.22;;;63.20;;
40314;SDS011;26021;45.640;11.302;2023-02-22T06:09:23;111.00;;;58.13;;
40314;SDS011;26021;45.640;11.302;2023-02-22T06:11:49;121.20;;;60.03;;
40314;SDS011;26021;45.640;11.302;2023-02-22T06:14:14;116.15;;;59.17;;
40314;SDS011;26021;45.640;11.302;2023-02-22T06:16:40;111.88;;;57.72;;
40314;SDS011;26021;45.640;11.302;2023-02-22T06:19:05;117.05;;;57.53;;
40314;SDS011;26021;45.640;11.302;2023-02-22T06:21:31;114.95;;;58.13;;
40314;SDS011;26021;45.640;11.302;2023-02-22T06:23:56;114.50;;;58.63;;
40314;SDS011;26021;45.640;11.302;2023-02-22T06:26:22;120.38;;;57.55;;
40314;SDS011;26021;45.640;11.302;2023-02-22T06:28:47;113.15;;;59.40;;
40314;SDS011;26021;45.640;11.302;2023-02-22T06:31:13;114.55;;;58.20;;
40314;SDS011;26021;45.640;11.302;2023-02-22T06:33:39;112.07;;;59.05;;
40314;SDS011;26021;45.640;11.302;2023-02-22T06:36:05;120.10;;;59.55;;
40314;SDS011;26021;45.640;11.302;2023-02-22T06:38:30;110.45;;;58.03;;
40314;SDS011;26021;45.640;11.302;2023-02-22T06:40:56;120.65;;;61.83;;
40314;SDS011;26021;45.640;11.302;2023-02-22T06:43:22;107.82;;;57.42;;
40314;SDS011;26021;45.640;11.302;2023-02-22T06:45:49;119.68;;;60.80;;
40314;SDS011;26021;45.640;11.302;2023-02-22T06:48:15;112.60;;;58.30;;
40314;SDS011;26021;45.640;11.302;2023-02-22T06:50:41;110.80;;;58.88;;
40314;SDS011;26021;45.640;11.302;2023-02-22T06:53:06;119.07;;;60.83;;
40314;SDS011;26021;45.640;11.302;2023-02-22T06:55:33;120.78;;;59.78;;
40314;SDS011;26021;45.640;11.302;2023-02-22T06:57:59;110.43;;;59.35;;
40314;SDS011;26021;45.640;11.302;2023-02-22T07:00:27;112.82;;;60.45;;
40314;SDS011;26021;45.640;11.302;2023-02-22T07:02:53;112.93;;;59.85;;
40314;SDS011;26021;45.640;11.302;2023-02-22T07:05:20;117.93;;;61.03;;
40314;SDS011;26021;45.640;11.302;2023-02-22T07:07:47;110.60;;;58.33;;
40314;SDS011;26021;45.640;11.302;2023-02-22T07:12:45;115.18;;;59.75;;
40314;SDS011;26021;45.640;11.302;2023-02-22T07:15:10;117.57;;;61.45;;
40314;SDS011;26021;45.640;11.302;2023-02-22T07:17:37;113.80;;;60.47;;
40314;SDS011;26021;45.640;11.302;2023-02-22T07:20:05;112.47;;;59.13;;
40314;SDS011;26021;45.640;11.302;2023-02-22T07:22:31;111.63;;;60.33;;
40314;SDS011;26021;45.640;11.302;2023-02-22T07:24:56;109.97;;;60.50;;
40314;SDS011;26021;45.640;11.302;2023-02-22T07:27:22;111.22;;;60.63;;
40314;SDS011;26021;45.640;11.302;2023-02-22T07:29:47;108.65;;;57.95;;
40314;SDS011;26021;45.640;11.302;2023-02-22T07:32:13;109.13;;;58.17;;
40314;SDS011;26021;45.640;11.302;2023-02-22T07:34:40;112.40;;;59.42;;
40314;SDS011;26021;45.640;11.302;2023-02-22T07:37:07;111.30;;;59.63;;
40314;SDS011;26021;45.640;11.302;2023-02-22T07:39:32;111.03;;;60.15;;
40314;SDS011;26021;45.640;11.302;2023-02-22T07:41:58;114.22;;;61.28;;
40314;SDS011;26021;45.640;11.302;2023-02-22T07:44:24;112.72;;;60.05;;
40314;SDS011;26021;45.640;11.302;2023-02-22T07:46:49;111.82;;;58.38;;
40314;SDS011;26021;45.640;11.302;2023-02-22T07:49:15;108.13;;;57.50;;
40314;SDS011;26021;45.640;11.302;2023-02-22T07:51:41;117.65;;;61.85;;
40314;SDS011;26021;45.640;11.302;2023-02-22T07:54:06;109.18;;;60.30;;
40314;SDS011;26021;45.640;11.302;2023-02-22T07:56:32;103.43;;;58.58;;
40314;SDS011;26021;45.640;11.302;2023-02-22T07:58:57;104.80;;;59.22;;
40314;SDS011;26021;45.640;11.302;2023-02-22T08:01:23;108.07;;;58.33;;
40314;SDS011;26021;45.640;11.302;2023-02-22T08:03:48;105.47;;;59.95;;
40314;SDS011;26021;45.640;11.302;2023-02-22T08:06:14;118.97;;;58.45;;
40314;SDS011;26021;45.640;11.302;2023-02-22T08:08:40;110.85;;;55.38;;
40314;SDS011;26021;45.640;11.302;2023-02-22T08:11:06;107.78;;;58.10;;
40314;SDS011;26021;45.640;11.302;2023-02-22T08:13:32;106.57;;;57.33;;
40314;SDS011;26021;45.640;11.302;2023-02-22T08:15:58;109.43;;;58.75;;
40314;SDS011;26021;45.640;11.302;2023-02-22T08:18:24;106.07;;;57.80;;
40314;SDS011;26021;45.640;11.302;2023-02-22T08:20:50;104.47;;;57.17;;
40314;SDS011;26021;45.640;11.302;2023-02-22T08:23:17;107.20;;;57.03;;
40314;SDS011;26021;45.640;11.302;2023-02-22T08:25:44;107.25;;;56.03;;
40314;SDS011;26021;45.640;11.302;2023-02-22T08:28:11;110.32;;;57.72;;
40314;SDS011;26021;45.640;11.302;2023-02-22T08:30:39;113.45;;;59.38;;
40314;SDS011;26021;45.640;11.302;2023-02-22T08:33:07;110.05;;;57.58;;
40314;SDS011;26021;45.640;11.302;2023-02-22T08:35:34;99.30;;;56.15;;
40314;SDS011;26021;45.640;11.302;2023-02-22T08:38:01;106.22;;;59.47;;
40314;SDS011;26021;45.640;11.302;2023-02-22T08:40:29;106.22;;;56.75;;
40314;SDS011;26021;45.640;11.302;2023-02-22T08:42:57;103.95;;;56.03;;
40314;SDS011;26021;45.640;11.302;2023-02-22T08:45:24;107.15;;;58.25;;
40314;SDS011;26021;45.640;11.302;2023-02-22T08:47:49;104.80;;;53.83;;
40314;SDS011;26021;45.640;11.302;2023-02-22T08:50:18;96.95;;;54.42;;
40314;SDS011;26021;45.640;11.302;2023-02-22T08:52:46;101.13;;;55.85;;
40314;SDS011;26021;45.640;11.302;2023-02-22T08:55:13;109.80;;;56.58;;
40314;SDS011;26021;45.640;11.302;2023-02-22T08:57:39;107.30;;;57.13;;
40314;SDS011;26021;45.640;11.302;2023-02-22T09:00:04;103.00;;;57.45;;
40314;SDS011;26021;45.640;11.302;2023-02-22T09:02:30;102.90;;;58.25;;
40314;SDS011;26021;45.640;11.302;2023-02-22T09:04:56;99.50;;;55.78;;
40314;SDS011;26021;45.640;11.302;2023-02-22T09:07:21;106.32;;;57.45;;
40314;SDS011;26021;45.640;11.302;2023-02-22T09:09:46;107.43;;;55.75;;
40314;SDS011;26021;45.640;11.302;2023-02-22T09:12:12;107.72;;;58.92;;
40314;SDS011;26021;45.640;11.302;2023-02-22T09:14:38;99.03;;;57.47;;
40314;SDS011;26021;45.640;11.302;2023-02-22T09:17:03;94.18;;;52.80;;
40314;SDS011;26021;45.640;11.302;2023-02-22T09:19:29;95.53;;;54.05;;
40314;SDS011;26021;45.640;11.302;2023-02-22T09:21:55;98.68;;;54.97;;
40314;SDS011;26021;45.640;11.302;2023-02-22T09:24:21;96.70;;;52.65;;
40314;SDS011;26021;45.640;11.302;2023-02-22T09:26:47;89.30;;;51.40;;
40314;SDS011;26021;45.640;11.302;2023-02-22T09:29:18;88.80;;;48.03;;
40314;SDS011;26021;45.640;11.302;2023-02-22T09:31:47;88.18;;;47.95;;
40314;SDS011;26021;45.640;11.302;2023-02-22T09:34:14;86.97;;;47.80;;
40314;SDS011;26021;45.640;11.302;2023-02-22T09:36:40;87.70;;;46.25;;
40314;SDS011;26021;45.640;11.302;2023-02-22T09:39:13;90.45;;;47.35;;
40314;SDS011;26021;45.640;11.302;2023-02-22T09:46:46;85.38;;;45.25;;
40314;SDS011;26021;45.640;11.302;2023-02-22T09:52:15;89.43;;;46.55;;
40314;SDS011;26021;45.640;11.302;2023-02-22T09:54:51;81.07;;;45.05;;
40314;SDS011;26021;45.640;11.302;2023-02-22T09:57:33;84.80;;;45.90;;
40314;SDS011;26021;45.640;11.302;2023-02-22T10:05:38;90.43;;;46.88;;
40314;SDS011;26021;45.640;11.302;2023-02-22T10:08:13;93.40;;;48.20;;
40314;SDS011;26021;45.640;11.302;2023-02-22T10:10:43;92.07;;;47.03;;
40314;SDS011;26021;45.640;11.302;2023-02-22T10:26:56;89.22;;;49.40;;
40314;SDS011;26021;45.640;11.302;2023-02-22T10:29:40;89.72;;;49.10;;
40314;SDS011;26021;45.640;11.302;2023-02-22T10:34:50;85.72;;;46.35;;
40314;SDS011;26021;45.640;11.302;2023-02-22T10:37:29;95.10;;;48.35;;
40314;SDS011;26021;45.640;11.302;2023-02-22T10:42:47;91.03;;;50.40;;
40314;SDS011;26021;45.640;11.302;2023-02-22T10:45:18;95.55;;;50.33;;
40314;SDS011;26021;45.640;11.302;2023-02-22T10:47:51;98.25;;;50.72;;
40314;SDS011;26021;45.640;11.302;2023-02-22T10:50:19;99.40;;;49.97;;
40314;SDS011;26021;45.640;11.302;2023-02-22T10:52:46;100.40;;;51.63;;
40314;SDS011;26021;45.640;11.302;2023-02-22T10:55:12;97.25;;;51.15;;
40314;SDS011;26021;45.640;11.302;2023-02-22T10:57:40;97.30;;;53.90;;
40314;SDS011;26021;45.640;11.302;2023-02-22T11:02:54;96.40;;;53.45;;
40314;SDS011;26021;45.640;11.302;2023-02-22T11:05:26;100.97;;;54.08;;
40314;SDS011;26021;45.640;11.302;2023-02-22T11:10:41;102.85;;;55.50;;
40314;SDS011;26021;45.640;11.302;2023-02-22T11:16:00;100.22;;;56.17;;
40314;SDS011;26021;45.640;11.302;2023-02-22T11:18:42;101.90;;;54.55;;
40314;SDS011;26021;45.640;11.302;2023-02-22T11:21:09;98.20;;;53.63;;
40314;SDS011;26021;45.640;11.302;2023-02-22T11:23:38;100.95;;;55.38;;
40314;SDS011;26021;45.640;11.302;2023-02-22T11:28:38;102.50;;;55.35;;
40314;SDS011;26021;45.640;11.302;2023-02-22T11:33:57;103.32;;;56.35;;
40314;SDS011;26021;45.640;11.302;2023-02-22T11:36:32;115.35;;;56.75;;
40314;SDS011;26021;45.640;11.302;2023-02-22T11:39:02;105.63;;;55.92;;
40314;SDS011;26021;45.640;11.302;2023-02-22T11:41:30;103.38;;;57.60;;
40314;SDS011;26021;45.640;11.302;2023-02-22T11:44:43;105.45;;;57.03;;
40314;SDS011;26021;45.640;11.302;2023-02-22T11:46:52;103.97;;;57.42;;
40314;SDS011;26021;45.640;11.302;2023-02-22T11:49:20;111.05;;;58.88;;
40314;SDS011;26021;45.640;11.302;2023-02-22T12:03:18;114.03;;;60.13;;
40314;SDS011;26021;45.640;11.302;2023-02-22T12:14:37;106.20;;;58.70;;
40314;SDS011;26021;45.640;11.302;2023-02-22T12:25:54;106.47;;;58.40;;
40314;SDS011;26021;45.640;11.302;2023-02-22T12:31:17;118.57;;;63.83;;
40314;SDS011;26021;45.640;11.302;2023-02-22T12:33:52;118.20;;;65.88;;
40314;SDS011;26021;45.640;11.302;2023-02-22T12:42:17;118.50;;;64.80;;
40314;SDS011;26021;45.640;11.302;2023-02-22T12:44:53;115.35;;;66.25;;
40314;SDS011;26021;45.640;11.302;2023-02-22T12:47:25;117.30;;;65.60;;
40314;SDS011;26021;45.640;11.302;2023-02-22T12:50:19;119.90;;;64.38;;
40314;SDS011;26021;45.640;11.302;2023-02-22T12:52:58;125.60;;;67.13;;
40314;SDS011;26021;45.640;11.302;2023-02-22T12:58:06;121.97;;;66.03;;
40314;SDS011;26021;45.640;11.302;2023-02-22T13:06:03;113.82;;;62.88;;
40314;SDS011;26021;45.640;11.302;2023-02-22T13:08:47;123.43;;;65.38;;
40314;SDS011;26021;45.640;11.302;2023-02-22T13:22:05;129.30;;;67.68;;
40314;SDS011;26021;45.640;11.302;2023-02-22T13:29:59;123.50;;;65.63;;
40314;SDS011;26021;45.640;11.302;2023-02-22T13:41:11;121.47;;;68.57;;
40314;SDS011;26021;45.640;11.302;2023-02-22T13:49:23;128.52;;;71.65;;
40314;SDS011;26021;45.640;11.302;2023-02-22T13:52:16;131.63;;;72.60;;
40314;SDS011;26021;45.640;11.302;2023-02-22T13:54:48;135.23;;;72.53;;
40314;SDS011;26021;45.640;11.302;2023-02-22T13:57:20;127.28;;;71.50;;
40314;SDS011;26021;45.640;11.302;2023-02-22T13:59:48;139.40;;;75.68;;
40314;SDS011;26021;45.640;11.302;2023-02-22T14:13:08;133.43;;;72.57;;
40314;SDS011;26021;45.640;11.302;2023-02-22T14:15:35;133.50;;;73.07;;
40314;SDS011;26021;45.640;11.302;2023-02-22T14:18:01;135.82;;;72.90;;
40314;SDS011;26021;45.640;11.302;2023-02-22T14:20:37;133.93;;;73.80;;
40314;SDS011;26021;45.640;11.302;2023-02-22T14:25:55;137.55;;;72.70;;
40314;SDS011;26021;45.640;11.302;2023-02-22T14:31:14;141.48;;;74.95;;
40314;SDS011;26021;45.640;11.302;2023-02-22T14:36:33;144.00;;;74.50;;
40314;SDS011;26021;45.640;11.302;2023-02-22T14:44:58;140.48;;;75.43;;
40314;SDS011;26021;45.640;11.302;2023-02-22T14:50:16;141.48;;;75.43;;
40314;SDS011;26021;45.640;11.302;2023-02-22T14:52:42;140.07;;;74.55;;
40314;SDS011;26021;45.640;11.302;2023-02-22T14:55:30;146.13;;;76.47;;
40314;SDS011;26021;45.640;11.302;2023-02-22T14:58:04;140.70;;;74.30;;
40314;SDS011;26021;45.640;11.302;2023-02-22T15:00:41;131.00;;;73.88;;
40314;SDS011;26021;45.640;11.302;2023-02-22T15:03:29;136.45;;;74.45;;
40314;SDS011;26021;45.640;11.302;2023-02-22T15:06:06;142.82;;;75.88;;
40314;SDS011;26021;45.640;11.302;2023-02-22T15:08:39;139.95;;;76.13;;
40314;SDS011;26021;45.640;11.302;2023-02-22T15:11:10;137.27;;;75.00;;
40314;SDS011;26021;45.640;11.302;2023-02-22T15:13:48;138.18;;;75.63;;
40314;SDS011;26021;45.640;11.302;2023-02-22T15:16:15;140.05;;;75.10;;
40314;SDS011;26021;45.640;11.302;2023-02-22T15:18:42;139.68;;;75.03;;
40314;SDS011;26021;45.640;11.302;2023-02-22T15:21:13;139.15;;;76.82;;
40314;SDS011;26021;45.640;11.302;2023-02-22T15:23:42;142.57;;;75.70;;
40314;SDS011;26021;45.640;11.302;2023-02-22T15:26:30;134.85;;;72.45;;
40314;SDS011;26021;45.640;11.302;2023-02-22T15:31:41;143.02;;;76.05;;
40314;SDS011;26021;45.640;11.302;2023-02-22T15:36:38;129.98;;;72.85;;
40314;SDS011;26021;45.640;11.302;2023-02-22T15:39:06;134.00;;;73.18;;
40314;SDS011;26021;45.640;11.302;2023-02-22T15:41:43;129.05;;;71.32;;
40314;SDS011;26021;45.640;11.302;2023-02-22T15:44:09;139.70;;;75.15;;
40314;SDS011;26021;45.640;11.302;2023-02-22T15:46:38;141.00;;;76.53;;
40314;SDS011;26021;45.640;11.302;2023-02-22T15:49:05;130.73;;;73.30;;
40314;SDS011;26021;45.640;11.302;2023-02-22T15:52:06;128.60;;;72.32;;
40314;SDS011;26021;45.640;11.302;2023-02-22T15:54:40;138.52;;;77.35;;
40314;SDS011;26021;45.640;11.302;2023-02-22T15:57:08;129.43;;;74.07;;
40314;SDS011;26021;45.640;11.302;2023-02-22T15:59:41;137.20;;;75.65;;
40314;SDS011;26021;45.640;11.302;2023-02-22T16:02:19;135.77;;;75.50;;
40314;SDS011;26021;45.640;11.302;2023-02-22T16:05:07;130.05;;;74.50;;
40314;SDS011;26021;45.640;11.302;2023-02-22T16:07:40;139.55;;;74.10;;
40314;SDS011;26021;45.640;11.302;2023-02-22T16:10:25;141.25;;;74.00;;
40314;SDS011;26021;45.640;11.302;2023-02-22T16:13:07;142.52;;;76.90;;
40314;SDS011;26021;45.640;11.302;2023-02-22T16:15:34;142.43;;;76.03;;
40314;SDS011;26021;45.640;11.302;2023-02-22T16:18:16;144.70;;;76.30;;
40314;SDS011;26021;45.640;11.302;2023-02-22T16:21:14;137.90;;;75.53;;
40314;SDS011;26021;45.640;11.302;2023-02-22T16:28:54;133.93;;;74.20;;
40314;SDS011;26021;45.640;11.302;2023-02-22T16:31:23;141.05;;;74.82;;
40314;SDS011;26021;45.640;11.302;2023-02-22T16:33:51;145.57;;;77.75;;
40314;SDS011;26021;45.640;11.302;2023-02-22T16:36:18;140.45;;;76.38;;
40314;SDS011;26021;45.640;11.302;2023-02-22T16:38:45;146.25;;;78.18;;
40314;SDS011;26021;45.640;11.302;2023-02-22T16:41:13;139.93;;;75.30;;
40314;SDS011;26021;45.640;11.302;2023-02-22T16:43:44;134.60;;;76.38;;
40314;SDS011;26021;45.640;11.302;2023-02-22T16:46:15;137.90;;;75.70;;
40314;SDS011;26021;45.640;11.302;2023-02-22T16:48:42;136.93;;;78.95;;
40314;SDS011;26021;45.640;11.302;2023-02-22T16:51:23;139.48;;;76.60;;
40314;SDS011;26021;45.640;11.302;2023-02-22T16:53:53;143.85;;;75.07;;
40314;SDS011;26021;45.640;11.302;2023-02-22T16:56:22;148.82;;;78.75;;
40314;SDS011;26021;45.640;11.302;2023-02-22T16:58:52;145.40;;;78.82;;
40314;SDS011;26021;45.640;11.302;2023-02-22T17:01:18;144.07;;;78.15;;
40314;SDS011;26021;45.640;11.302;2023-02-22T17:03:47;151.20;;;80.68;;
40314;SDS011;26021;45.640;11.302;2023-02-22T17:06:14;144.20;;;77.43;;
40314;SDS011;26021;45.640;11.302;2023-02-22T17:08:41;141.68;;;76.80;;
40314;SDS011;26021;45.640;11.302;2023-02-22T17:11:07;143.25;;;77.82;;
40314;SDS011;26021;45.640;11.302;2023-02-22T17:13:39;144.27;;;79.63;;
40314;SDS011;26021;45.640;11.302;2023-02-22T17:16:05;138.18;;;77.47;;
40314;SDS011;26021;45.640;11.302;2023-02-22T17:18:31;149.38;;;80.63;;
40314;SDS011;26021;45.640;11.302;2023-02-22T17:20:58;150.50;;;80.63;;
40314;SDS011;26021;45.640;11.302;2023-02-22T17:23:25;143.15;;;79.32;;
40314;SDS011;26021;45.640;11.302;2023-02-22T17:25:58;146.70;;;81.15;;
40314;SDS011;26021;45.640;11.302;2023-02-22T17:28:28;146.05;;;79.63;;
40314;SDS011;26021;45.640;11.302;2023-02-22T17:30:55;149.98;;;83.05;;
40314;SDS011;26021;45.640;11.302;2023-02-22T17:33:26;155.23;;;82.07;;
40314;SDS011;26021;45.640;11.302;2023-02-22T17:35:55;140.50;;;76.95;;